sensor_id;sensor_type;location;lat;lon;timestamp;pressure;altitude;pressure_sealevel;temperature;humidity
72959;BME280;60008;50.826;6.896;2023-02-28T00:01:56;102315.47;;;0.16;100.00
72959;BME280;60008;50.826;6.896;2023-02-28T00:04:42;102320.69;;;0.16;100.00
72959;BME280;60008;50.826;6.896;2023-02-28T00:07:27;102319.94;;;0.13;100.00
72959;BME280;60008;50.826;6.896;2023-02-28T00:10:15;102312.13;;;0.13;100.00
72959;BME280;60008;50.826;6.896;2023-02-28T00:13:05;102309.63;;;0.10;100.00
72959;BME280;60008;50.826;6.896;2023-02-28T00:16:02;102311.16;;;0.15;100.00
72959;BME280;60008;50.826;6.896;2023-02-28T00:18:48;102308.16;;;0.26;100.00
72959;BME280;60008;50.826;6.896;2023-02-28T00:21:33;102317.31;;;0.36;100.00
72959;BME280;60008;50.826;6.896;2023-02-28T00:24:18;102306.84;;;0.37;100.00
72959;BME280;60008;50.826;6.896;2023-02-28T00:27:03;102314.78;;;0.34;100.00
72959;BME280;60008;50.826;6.896;2023-02-28T00:29:48;102311.22;;;0.37;100.00
72959;BME280;60008;50.826;6.896;2023-02-28T00:32:33;102312.78;;;0.41;100.00
72959;BME280;60008;50.826;6.896;2023-02-28T00:35:19;102311.59;;;0.49;100.00
72959;BME280;60008;50.826;6.896;2023-02-28T00:38:04;102306.63;;;0.43;100.00
72959;BME280;60008;50.826;6.896;2023-02-28T00:40:49;102312.06;;;0.37;100.00
72959;BME280;60008;50.826;6.896;2023-02-28T00:43:35;102307.06;;;0.31;100.00
72959;BME280;60008;50.826;6.896;2023-02-28T00:46:20;102310.47;;;0.33;100.00
72959;BME280;60008;50.826;6.896;2023-02-28T00:49:05;102312.63;;;0.22;100.00
72959;BME280;60008;50.826;6.896;2023-02-28T00:51:51;102319.75;;;0.17;100.00
72959;BME280;60008;50.826;6.896;2023-02-28T00:54:36;102319.97;;;0.11;100.00
72959;BME280;60008;50.826;6.896;2023-02-28T00:57:21;102317.94;;;0.19;100.00
72959;BME280;60008;50.826;6.896;2023-02-28T01:00:07;102325.94;;;0.15;100.00
72959;BME280;60008;50.826;6.896;2023-02-28T01:02:52;102319.41;;;0.03;100.00
72959;BME280;60008;50.826;6.896;2023-02-28T01:05:37;102324.97;;;-0.06;100.00
72959;BME280;60008;50.826;6.896;2023-02-28T01:08:22;102323.94;;;-0.02;100.00
72959;BME280;60008;50.826;6.896;2023-02-28T01:11:09;102321.22;;;0.01;100.00
72959;BME280;60008;50.826;6.896;2023-02-28T01:13:55;102319.94;;;0.13;100.00
72959;BME280;60008;50.826;6.896;2023-02-28T01:16:40;102327.06;;;0.08;100.00
72959;BME280;60008;50.826;6.896;2023-02-28T01:19:25;102332.19;;;0.11;100.00
72959;BME280;60008;50.826;6.896;2023-02-28T01:22:10;102330.47;;;0.10;100.00
72959;BME280;60008;50.826;6.896;2023-02-28T01:24:55;102324.47;;;0.08;100.00
72959;BME280;60008;50.826;6.896;2023-02-28T01:27:40;102320.91;;;0.10;100.00
72959;BME280;60008;50.826;6.896;2023-02-28T01:30:25;102320.25;;;0.04;100.00
72959;BME280;60008;50.826;6.896;2023-02-28T01:33:10;102317.75;;;0.00;100.00
72959;BME280;60008;50.826;6.896;2023-02-28T01:35:59;102318.50;;;0.04;100.00
72959;BME280;60008;50.826;6.896;2023-02-28T01:38:45;102315.03;;;0.04;100.00
72959;BME280;60008;50.826;6.896;2023-02-28T01:41:32;102319.53;;;0.00;100.00
72959;BME280;60008;50.826;6.896;2023-02-28T01:47:42;102318.69;;;-0.01;100.00
72959;BME280;60008;50.826;6.896;2023-02-28T01:50:32;102313.56;;;-0.04;100.00
72959;BME280;60008;50.826;6.896;2023-02-28T01:53:25;102311.88;;;-0.05;100.00
72959;BME280;60008;50.826;6.896;2023-02-28T01:56:13;102312.63;;;-0.01;100.00
72959;BME280;60008;50.826;6.896;2023-02-28T01:59:04;102304.41;;;-0.14;100.00
72959;BME280;60008;50.826;6.896;2023-02-28T02:01:49;102302.84;;;-0.19;100.00
72959;BME280;60008;50.826;6.896;2023-02-28T02:05:05;102298.00;;;-0.30;100.00
72959;BME280;60008;50.826;6.896;2023-02-28T02:07:55;102312.25;;;-0.40;100.00
72959;BME280;60008;50.826;6.896;2023-02-28T02:10:47;102306.03;;;-0.36;100.00
72959;BME280;60008;50.826;6.896;2023-02-28T02:13:50;102306.41;;;-0.46;100.00
72959;BME280;60008;50.826;6.896;2023-02-28T02:25:45;102298.19;;;-0.61;100.00
72959;BME280;60008;50.826;6.896;2023-02-28T02:28:57;102299.38;;;-0.71;100.00
72959;BME280;60008;50.826;6.896;2023-02-28T02:35:12;102296.75;;;-0.69;100.00
72959;BME280;60008;50.826;6.896;2023-02-28T02:41:07;102296.09;;;-0.76;100.00
72959;BME280;60008;50.826;6.896;2023-02-28T02:44:02;102296.25;;;-0.80;100.00
72959;BME280;60008;50.826;6.896;2023-02-28T02:46:54;102293.84;;;-0.86;100.00
72959;BME280;60008;50.826;6.896;2023-02-28T02:49:52;102294.63;;;-0.84;100.00
72959;BME280;60008;50.826;6.896;2023-02-28T02:52:45;102299.38;;;-0.97;100.00
72959;BME280;60008;50.826;6.896;2023-02-28T02:55:37;102303.56;;;-0.91;100.00
72959;BME280;60008;50.826;6.896;2023-02-28T02:58:27;102294.69;;;-0.86;100.00
72959;BME280;60008;50.826;6.896;2023-02-28T03:01:23;102299.03;;;-0.86;100.00
72959;BME280;60008;50.826;6.896;2023-02-28T03:04:17;102302.75;;;-0.93;100.00
72959;BME280;60008;50.826;6.896;2023-02-28T03:07:03;102295.66;;;-0.88;100.00
72959;BME280;60008;50.826;6.896;2023-02-28T03:09:51;102289.31;;;-0.80;100.00
72959;BME280;60008;50.826;6.896;2023-02-28T03:12:50;102288.19;;;-0.73;100.00
72959;BME280;60008;50.826;6.896;2023-02-28T03:15:53;102285.94;;;-0.83;100.00
72959;BME280;60008;50.826;6.896;2023-02-28T03:21:37;102275.34;;;-0.77;100.00
72959;BME280;60008;50.826;6.896;2023-02-28T03:24:43;102282.72;;;-0.91;100.00
72959;BME280;60008;50.826;6.896;2023-02-28T03:27:42;102286.19;;;-0.91;100.00
72959;BME280;60008;50.826;6.896;2023-02-28T03:30:38;102277.63;;;-0.94;100.00
72959;BME280;60008;50.826;6.896;2023-02-28T03:33:32;102279.97;;;-0.87;100.00
72959;BME280;60008;50.826;6.896;2023-02-28T03:36:20;102274.53;;;-0.79;100.00
72959;BME280;60008;50.826;6.896;2023-02-28T03:39:13;102276.81;;;-0.70;100.00
72959;BME280;60008;50.826;6.896;2023-02-28T03:42:06;102276.81;;;-0.70;100.00
72959;BME280;60008;50.826;6.896;2023-02-28T03:44:59;102273.53;;;-0.75;100.00
72959;BME280;60008;50.826;6.896;2023-02-28T03:47:57;102271.00;;;-0.78;100.00
72959;BME280;60008;50.826;6.896;2023-02-28T03:50:51;102284.44;;;-0.90;100.00
72959;BME280;60008;50.826;6.896;2023-02-28T03:53:42;102277.03;;;-1.02;100.00
72959;BME280;60008;50.826;6.896;2023-02-28T03:56:38;102279.47;;;-0.98;100.00
72959;BME280;60008;50.826;6.896;2023-02-28T04:00:10;102283.78;;;-0.97;100.00
72959;BME280;60008;50.826;6.896;2023-02-28T04:02:35;102284.13;;;-1.07;100.00
72959;BME280;60008;50.826;6.896;2023-02-28T04:05:21;102278.78;;;-1.03;100.00
72959;BME280;60008;50.826;6.896;2023-02-28T04:08:07;102286.38;;;-0.97;100.00
72959;BME280;60008;50.826;6.896;2023-02-28T04:10:59;102291.88;;;-1.06;100.00
72959;BME280;60008;50.826;6.896;2023-02-28T04:13:45;102286.19;;;-0.91;100.00
72959;BME280;60008;50.826;6.896;2023-02-28T04:16:32;102292.97;;;-0.87;100.00
72959;BME280;60008;50.826;6.896;2023-02-28T04:19:19;102285.00;;;-0.54;100.00
72959;BME280;60008;50.826;6.896;2023-02-28T04:22:04;102284.91;;;-0.53;100.00
72959;BME280;60008;50.826;6.896;2023-02-28T04:24:49;102283.31;;;-0.57;100.00
72959;BME280;60008;50.826;6.896;2023-02-28T04:27:34;102282.94;;;-0.71;100.00
72959;BME280;60008;50.826;6.896;2023-02-28T04:30:19;102281.44;;;-0.78;100.00
72959;BME280;60008;50.826;6.896;2023-02-28T04:33:05;102282.69;;;-0.64;100.00
72959;BME280;60008;50.826;6.896;2023-02-28T04:36:04;102280.47;;;-0.76;100.00
72959;BME280;60008;50.826;6.896;2023-02-28T04:38:50;102283.50;;;-0.88;100.00
72959;BME280;60008;50.826;6.896;2023-02-28T04:41:35;102294.44;;;-1.04;100.00
72959;BME280;60008;50.826;6.896;2023-02-28T04:44:21;102302.53;;;-1.13;100.00
72959;BME280;60008;50.826;6.896;2023-02-28T04:47:06;102306.06;;;-1.16;100.00
72959;BME280;60008;50.826;6.896;2023-02-28T04:49:51;102299.50;;;-1.28;100.00
72959;BME280;60008;50.826;6.896;2023-02-28T04:52:36;102300.78;;;-1.13;100.00
72959;BME280;60008;50.826;6.896;2023-02-28T04:55:21;102304.38;;;-1.17;100.00
72959;BME280;60008;50.826;6.896;2023-02-28T04:58:06;102307.06;;;-1.20;100.00
72959;BME280;60008;50.826;6.896;2023-02-28T05:00:54;102301.88;;;-1.20;100.00
72959;BME280;60008;50.826;6.896;2023-02-28T05:03:46;102313.31;;;-1.26;100.00
72959;BME280;60008;50.826;6.896;2023-02-28T05:06:33;102307.50;;;-1.34;100.00
72959;BME280;60008;50.826;6.896;2023-02-28T05:09:18;102311.25;;;-1.44;100.00
72959;BME280;60008;50.826;6.896;2023-02-28T05:12:03;102316.72;;;-1.24;100.00
72959;BME280;60008;50.826;6.896;2023-02-28T05:14:48;102318.28;;;-1.18;100.00
72959;BME280;60008;50.826;6.896;2023-02-28T05:17:33;102318.63;;;-1.30;100.00
72959;BME280;60008;50.826;6.896;2023-02-28T05:20:18;102315.38;;;-1.37;100.00
72959;BME280;60008;50.826;6.896;2023-02-28T05:23:03;102326.75;;;-1.41;100.00
72959;BME280;60008;50.826;6.896;2023-02-28T05:25:48;102320.00;;;-1.46;100.00
72959;BME280;60008;50.826;6.896;2023-02-28T05:28:33;102314.06;;;-1.50;100.00
72959;BME280;60008;50.826;6.896;2023-02-28T05:31:19;102313.13;;;-1.47;100.00
72959;BME280;60008;50.826;6.896;2023-02-28T05:34:05;102310.59;;;-1.50;100.00
72959;BME280;60008;50.826;6.896;2023-02-28T05:36:50;102308.22;;;-1.29;100.00
72959;BME280;60008;50.826;6.896;2023-02-28T05:39:35;102313.25;;;-1.24;100.00
72959;BME280;60008;50.826;6.896;2023-02-28T05:42:20;102308.84;;;-1.22;100.00
72959;BME280;60008;50.826;6.896;2023-02-28T05:45:06;102307.25;;;-1.26;100.00
72959;BME280;60008;50.826;6.896;2023-02-28T05:47:55;102318.53;;;-1.27;100.00
72959;BME280;60008;50.826;6.896;2023-02-28T05:50:40;102317.84;;;-1.32;100.00
72959;BME280;60008;50.826;6.896;2023-02-28T05:53:25;102320.91;;;-1.47;100.00
72959;BME280;60008;50.826;6.896;2023-02-28T05:56:11;102319.34;;;-1.53;100.00
72959;BME280;60008;50.826;6.896;2023-02-28T05:58:56;102313.59;;;-1.35;100.00
72959;BME280;60008;50.826;6.896;2023-02-28T06:01:43;102321.28;;;-1.32;100.00
72959;BME280;60008;50.826;6.896;2023-02-28T06:04:33;102318.06;;;-1.40;100.00
72959;BME280;60008;50.826;6.896;2023-02-28T06:07:18;102313.97;;;-1.19;100.00
72959;BME280;60008;50.826;6.896;2023-02-28T06:10:04;102310.47;;;-1.18;100.00
72959;BME280;60008;50.826;6.896;2023-02-28T06:12:49;102308.81;;;-1.21;100.00
72959;BME280;60008;50.826;6.896;2023-02-28T06:15:34;102310.91;;;-1.32;100.00
72959;BME280;60008;50.826;6.896;2023-02-28T06:18:19;102317.19;;;-1.11;100.00
72959;BME280;60008;50.826;6.896;2023-02-28T06:21:04;102312.13;;;-1.15;100.00
72959;BME280;60008;50.826;6.896;2023-02-28T06:23:50;102326.94;;;-1.47;100.00
72959;BME280;60008;50.826;6.896;2023-02-28T06:26:35;102319.38;;;-1.25;100.00
72959;BME280;60008;50.826;6.896;2023-02-28T06:29:21;102325.41;;;-1.25;100.00
72959;BME280;60008;50.826;6.896;2023-02-28T06:32:06;102328.16;;;-1.01;100.00
72959;BME280;60008;50.826;6.896;2023-02-28T06:34:51;102324.38;;;-0.91;100.00
72959;BME280;60008;50.826;6.896;2023-02-28T06:37:36;102332.69;;;-0.80;100.00
72959;BME280;60008;50.826;6.896;2023-02-28T06:40:24;102341.97;;;-0.73;100.00
72959;BME280;60008;50.826;6.896;2023-02-28T06:43:10;102337.25;;;-0.61;100.00
72959;BME280;60008;50.826;6.896;2023-02-28T06:46:00;102343.34;;;-0.62;100.00
72959;BME280;60008;50.826;6.896;2023-02-28T06:48:45;102340.38;;;-0.51;100.00
72959;BME280;60008;50.826;6.896;2023-02-28T06:51:30;102337.94;;;-0.55;100.00
72959;BME280;60008;50.826;6.896;2023-02-28T06:54:15;102345.56;;;-0.49;100.00
72959;BME280;60008;50.826;6.896;2023-02-28T06:57:00;102344.53;;;-0.45;100.00
72959;BME280;60008;50.826;6.896;2023-02-28T06:59:46;102354.97;;;-0.45;100.00
72959;BME280;60008;50.826;6.896;2023-02-28T07:02:31;102360.06;;;-0.42;100.00
72959;BME280;60008;50.826;6.896;2023-02-28T07:05:16;102365.34;;;-0.44;100.00
72959;BME280;60008;50.826;6.896;2023-02-28T07:08:03;102354.00;;;-0.43;100.00
72959;BME280;60008;50.826;6.896;2023-02-28T07:10:52;102367.03;;;-0.43;100.00
72959;BME280;60008;50.826;6.896;2023-02-28T07:13:37;102360.03;;;-0.41;100.00
72959;BME280;60008;50.826;6.896;2023-02-28T07:16:23;102353.88;;;-0.38;100.00
72959;BME280;60008;50.826;6.896;2023-02-28T07:19:09;102362.41;;;-0.35;100.00
72959;BME280;60008;50.826;6.896;2023-02-28T07:21:54;102359.78;;;-0.33;100.00
72959;BME280;60008;50.826;6.896;2023-02-28T07:24:39;102363.00;;;-0.27;100.00
72959;BME280;60008;50.826;6.896;2023-02-28T07:27:24;102361.09;;;-0.22;100.00
72959;BME280;60008;50.826;6.896;2023-02-28T07:30:10;102365.38;;;-0.19;100.00
72959;BME280;60008;50.826;6.896;2023-02-28T07:32:55;102366.00;;;-0.13;100.00
72959;BME280;60008;50.826;6.896;2023-02-28T07:35:41;102362.41;;;-0.09;100.00
72959;BME280;60008;50.826;6.896;2023-02-28T07:38:26;102369.16;;;-0.03;100.00
72959;BME280;60008;50.826;6.896;2023-02-28T07:41:11;102362.03;;;0.02;100.00
72959;BME280;60008;50.826;6.896;2023-02-28T07:43:56;102366.88;;;0.11;100.00
72959;BME280;60008;50.826;6.896;2023-02-28T07:46:44;102357.97;;;0.18;98.27
72959;BME280;60008;50.826;6.896;2023-02-28T07:49:28;102359.53;;;0.22;99.15
72959;BME280;60008;50.826;6.896;2023-02-28T07:52:13;102359.16;;;0.33;97.69
72959;BME280;60008;50.826;6.896;2023-02-28T07:54:59;102356.28;;;0.40;95.86
72959;BME280;60008;50.826;6.896;2023-02-28T07:57:43;102365.66;;;0.46;94.06
72959;BME280;60008;50.826;6.896;2023-02-28T08:00:29;102367.00;;;0.56;91.73
72959;BME280;60008;50.826;6.896;2023-02-28T08:03:20;102370.91;;;0.68;91.94
72959;BME280;60008;50.826;6.896;2023-02-28T08:06:08;102372.91;;;0.84;89.15
72959;BME280;60008;50.826;6.896;2023-02-28T08:08:59;102364.81;;;0.90;88.05
72959;BME280;60008;50.826;6.896;2023-02-28T08:11:44;102356.72;;;0.98;81.80
72959;BME280;60008;50.826;6.896;2023-02-28T08:14:29;102367.00;;;1.01;79.22
72959;BME280;60008;50.826;6.896;2023-02-28T08:17:14;102369.25;;;1.10;79.25
72959;BME280;60008;50.826;6.896;2023-02-28T08:19:59;102360.47;;;1.12;78.86
72959;BME280;60008;50.826;6.896;2023-02-28T08:22:44;102365.63;;;1.14;75.41
72959;BME280;60008;50.826;6.896;2023-02-28T08:25:30;102363.25;;;1.30;76.58
72959;BME280;60008;50.826;6.896;2023-02-28T08:28:15;102367.44;;;1.34;74.00
72959;BME280;60008;50.826;6.896;2023-02-28T08:31:00;102372.00;;;1.29;72.82
72959;BME280;60008;50.826;6.896;2023-02-28T08:33:46;102364.91;;;1.32;72.76
72959;BME280;60008;50.826;6.896;2023-02-28T08:36:34;102370.59;;;1.42;72.17
72959;BME280;60008;50.826;6.896;2023-02-28T08:39:19;102365.13;;;1.48;71.25
72959;BME280;60008;50.826;6.896;2023-02-28T08:42:04;102363.13;;;1.54;70.07
72959;BME280;60008;50.826;6.896;2023-02-28T08:44:52;102368.22;;;1.57;68.96
72959;BME280;60008;50.826;6.896;2023-02-28T08:47:37;102379.09;;;1.68;68.07
72959;BME280;60008;50.826;6.896;2023-02-28T08:50:22;102372.59;;;1.57;66.13
72959;BME280;60008;50.826;6.896;2023-02-28T08:53:07;102379.59;;;1.76;66.54
72959;BME280;60008;50.826;6.896;2023-02-28T08:56:01;102371.22;;;1.89;66.75
72959;BME280;60008;50.826;6.896;2023-02-28T08:58:48;102367.75;;;1.88;65.28
72959;BME280;60008;50.826;6.896;2023-02-28T09:01:33;102376.13;;;1.96;65.33
72959;BME280;60008;50.826;6.896;2023-02-28T09:04:18;102378.44;;;2.04;64.24
72959;BME280;60008;50.826;6.896;2023-02-28T09:07:05;102373.13;;;2.05;64.08
72959;BME280;60008;50.826;6.896;2023-02-28T09:09:50;102374.75;;;2.08;63.51
72959;BME280;60008;50.826;6.896;2023-02-28T09:12:38;102374.69;;;1.89;62.61
72959;BME280;60008;50.826;6.896;2023-02-28T09:15:23;102372.22;;;2.06;62.57
72959;BME280;60008;50.826;6.896;2023-02-28T09:18:09;102369.06;;;2.18;62.24
72959;BME280;60008;50.826;6.896;2023-02-28T09:20:54;102380.25;;;2.02;60.85
72959;BME280;60008;50.826;6.896;2023-02-28T09:23:40;102367.22;;;2.20;61.61
72959;BME280;60008;50.826;6.896;2023-02-28T09:26:27;102367.81;;;2.27;60.05
72959;BME280;60008;50.826;6.896;2023-02-28T09:29:26;102355.16;;;2.36;59.27
72959;BME280;60008;50.826;6.896;2023-02-28T09:32:11;102364.84;;;2.34;58.88
72959;BME280;60008;50.826;6.896;2023-02-28T09:34:56;102364.75;;;3.29;57.14
72959;BME280;60008;50.826;6.896;2023-02-28T09:37:42;102358.50;;;3.85;54.71
72959;BME280;60008;50.826;6.896;2023-02-28T09:40:27;102357.31;;;3.03;53.25
72959;BME280;60008;50.826;6.896;2023-02-28T09:43:14;102364.94;;;3.43;52.93
72959;BME280;60008;50.826;6.896;2023-02-28T09:49:38;102351.56;;;5.13;50.16
72959;BME280;60008;50.826;6.896;2023-02-28T09:52:29;102349.22;;;4.12;50.88
72959;BME280;60008;50.826;6.896;2023-02-28T09:58:01;102361.28;;;4.80;48.91
72959;BME280;60008;50.826;6.896;2023-02-28T10:01:00;102354.16;;;4.51;47.99
72959;BME280;60008;50.826;6.896;2023-02-28T10:06:49;102355.56;;;4.41;48.81
72959;BME280;60008;50.826;6.896;2023-02-28T10:09:35;102364.94;;;5.09;47.51
72959;BME280;60008;50.826;6.896;2023-02-28T10:12:22;102352.25;;;5.92;44.58
72959;BME280;60008;50.826;6.896;2023-02-28T10:15:08;102351.38;;;4.69;46.73
72959;BME280;60008;50.826;6.896;2023-02-28T10:18:03;102346.78;;;4.25;48.27
72959;BME280;60008;50.826;6.896;2023-02-28T10:20:54;102356.34;;;4.43;48.83
72959;BME280;60008;50.826;6.896;2023-02-28T10:23:40;102341.09;;;5.43;46.91
72959;BME280;60008;50.826;6.896;2023-02-28T10:26:28;102343.06;;;4.77;49.00
72959;BME280;60008;50.826;6.896;2023-02-28T10:29:15;102342.09;;;5.25;47.04
72959;BME280;60008;50.826;6.896;2023-02-28T10:32:02;102338.91;;;4.57;48.61
72959;BME280;60008;50.826;6.896;2023-02-28T10:35:10;102337.22;;;3.91;49.52
72959;BME280;60008;50.826;6.896;2023-02-28T10:38:00;102339.81;;;4.41;48.35
72959;BME280;60008;50.826;6.896;2023-02-28T10:43:50;102333.56;;;5.21;46.33
72959;BME280;60008;50.826;6.896;2023-02-28T10:46:35;102329.78;;;6.15;46.32
72959;BME280;60008;50.826;6.896;2023-02-28T10:49:23;102334.09;;;5.12;46.78
72959;BME280;60008;50.826;6.896;2023-02-28T10:52:09;102329.53;;;5.75;46.16
72959;BME280;60008;50.826;6.896;2023-02-28T10:55:14;102333.59;;;4.74;48.21
72959;BME280;60008;50.826;6.896;2023-02-28T10:57:59;102332.06;;;4.86;48.27
72959;BME280;60008;50.826;6.896;2023-02-28T11:00:45;102323.09;;;5.35;46.24
72959;BME280;60008;50.826;6.896;2023-02-28T11:03:33;102321.53;;;4.55;47.61
72959;BME280;60008;50.826;6.896;2023-02-28T11:06:22;102308.53;;;5.30;47.02
72959;BME280;60008;50.826;6.896;2023-02-28T11:09:35;102322.81;;;4.48;48.78
72959;BME280;60008;50.826;6.896;2023-02-28T11:12:36;102309.00;;;4.60;47.39
72959;BME280;60008;50.826;6.896;2023-02-28T11:15:35;102310.72;;;4.61;49.02
72959;BME280;60008;50.826;6.896;2023-02-28T11:18:37;102306.28;;;4.93;48.53
72959;BME280;60008;50.826;6.896;2023-02-28T11:21:36;102306.63;;;4.55;49.13
72959;BME280;60008;50.826;6.896;2023-02-28T11:24:42;102299.03;;;5.27;48.18
72959;BME280;60008;50.826;6.896;2023-02-28T11:30:25;102305.72;;;7.43;44.54
72959;BME280;60008;50.826;6.896;2023-02-28T11:33:30;102303.22;;;6.74;44.86
72959;BME280;60008;50.826;6.896;2023-02-28T11:36:22;102292.22;;;5.69;45.56
72959;BME280;60008;50.826;6.896;2023-02-28T11:39:11;102300.19;;;4.92;45.39
72959;BME280;60008;50.826;6.896;2023-02-28T11:42:22;102298.16;;;6.71;43.93
72959;BME280;60008;50.826;6.896;2023-02-28T11:45:21;102290.59;;;5.66;45.13
72959;BME280;60008;50.826;6.896;2023-02-28T11:54:39;102294.09;;;5.07;43.93
72959;BME280;60008;50.826;6.896;2023-02-28T11:58:04;102292.91;;;6.71;43.39
72959;BME280;60008;50.826;6.896;2023-02-28T12:01:28;102288.28;;;6.60;42.18
72959;BME280;60008;50.826;6.896;2023-02-28T12:04:30;102290.22;;;5.28;43.39
72959;BME280;60008;50.826;6.896;2023-02-28T12:11:29;102291.41;;;5.53;47.56
72959;BME280;60008;50.826;6.896;2023-02-28T12:20:33;102292.13;;;4.95;47.45
72959;BME280;60008;50.826;6.896;2023-02-28T12:26:38;102282.44;;;5.11;47.95
72959;BME280;60008;50.826;6.896;2023-02-28T12:32:18;102287.16;;;4.91;47.41
72959;BME280;60008;50.826;6.896;2023-02-28T12:37:59;102275.78;;;4.90;46.93
72959;BME280;60008;50.826;6.896;2023-02-28T12:43:38;102274.38;;;4.69;48.32
72959;BME280;60008;50.826;6.896;2023-02-28T12:46:37;102271.56;;;4.88;46.87
72959;BME280;60008;50.826;6.896;2023-02-28T12:49:32;102260.88;;;4.59;46.89
72959;BME280;60008;50.826;6.896;2023-02-28T12:55:41;102261.97;;;4.24;47.87
72959;BME280;60008;50.826;6.896;2023-02-28T12:58:33;102255.53;;;4.92;48.73
72959;BME280;60008;50.826;6.896;2023-02-28T13:04:46;102245.91;;;4.77;48.39
72959;BME280;60008;50.826;6.896;2023-02-28T13:08:10;102238.63;;;4.35;48.78
72959;BME280;60008;50.826;6.896;2023-02-28T13:11:02;102242.59;;;4.73;49.45
72959;BME280;60008;50.826;6.896;2023-02-28T13:13:59;102237.25;;;5.20;49.39
72959;BME280;60008;50.826;6.896;2023-02-28T13:17:03;102227.28;;;4.66;47.94
72959;BME280;60008;50.826;6.896;2023-02-28T13:22:48;102227.28;;;4.50;47.86
72959;BME280;60008;50.826;6.896;2023-02-28T13:37:43;102223.19;;;4.92;47.79
72959;BME280;60008;50.826;6.896;2023-02-28T13:40:33;102223.78;;;4.97;48.28
72959;BME280;60008;50.826;6.896;2023-02-28T13:49:35;102221.41;;;4.76;48.10
72959;BME280;60008;50.826;6.896;2023-02-28T13:52:22;102217.94;;;4.76;48.94
72959;BME280;60008;50.826;6.896;2023-02-28T14:04:42;102212.91;;;5.03;50.01
72959;BME280;60008;50.826;6.896;2023-02-28T14:07:42;102208.34;;;4.91;49.87
72959;BME280;60008;50.826;6.896;2023-02-28T14:10:41;102210.88;;;4.92;49.74
72959;BME280;60008;50.826;6.896;2023-02-28T14:16:13;102197.97;;;5.03;49.35
72959;BME280;60008;50.826;6.896;2023-02-28T14:19:02;102202.25;;;4.90;48.96
72959;BME280;60008;50.826;6.896;2023-02-28T14:22:10;102195.00;;;5.09;48.00
72959;BME280;60008;50.826;6.896;2023-02-28T14:25:10;102196.72;;;4.95;50.07
72959;BME280;60008;50.826;6.896;2023-02-28T14:31:06;102180.72;;;4.99;49.83
72959;BME280;60008;50.826;6.896;2023-02-28T14:37:04;102181.19;;;5.06;49.80
72959;BME280;60008;50.826;6.896;2023-02-28T14:39:50;102176.63;;;5.23;48.91
72959;BME280;60008;50.826;6.896;2023-02-28T14:42:36;102185.84;;;5.01;48.16
72959;BME280;60008;50.826;6.896;2023-02-28T14:45:30;102188.25;;;5.19;48.29
72959;BME280;60008;50.826;6.896;2023-02-28T14:48:17;102180.94;;;5.10;48.30
72959;BME280;60008;50.826;6.896;2023-02-28T14:51:03;102176.31;;;5.00;49.11
72959;BME280;60008;50.826;6.896;2023-02-28T14:53:56;102184.06;;;5.31;48.83
72959;BME280;60008;50.826;6.896;2023-02-28T14:56:41;102179.53;;;5.33;48.43
72959;BME280;60008;50.826;6.896;2023-02-28T14:59:33;102181.06;;;5.37;48.94
72959;BME280;60008;50.826;6.896;2023-02-28T15:02:23;102190.31;;;5.14;49.20
72959;BME280;60008;50.826;6.896;2023-02-28T15:08:09;102179.63;;;5.17;49.40
72959;BME280;60008;50.826;6.896;2023-02-28T15:10:58;102172.88;;;5.27;49.55
72959;BME280;60008;50.826;6.896;2023-02-28T15:13:53;102175.84;;;5.51;50.17
72959;BME280;60008;50.826;6.896;2023-02-28T15:16:43;102169.50;;;5.25;48.91
72959;BME280;60008;50.826;6.896;2023-02-28T15:19:32;102172.97;;;5.26;51.14
72959;BME280;60008;50.826;6.896;2023-02-28T15:22:27;102170.66;;;5.06;48.99
72959;BME280;60008;50.826;6.896;2023-02-28T15:25:19;102165.13;;;5.54;50.58
72959;BME280;60008;50.826;6.896;2023-02-28T15:28:05;102165.88;;;5.56;49.61
72959;BME280;60008;50.826;6.896;2023-02-28T15:30:56;102163.56;;;5.22;49.17
72959;BME280;60008;50.826;6.896;2023-02-28T15:33:52;102161.47;;;5.43;49.05
72959;BME280;60008;50.826;6.896;2023-02-28T15:36:37;102171.94;;;5.28;48.57
72959;BME280;60008;50.826;6.896;2023-02-28T15:39:27;102171.97;;;5.43;48.76
72959;BME280;60008;50.826;6.896;2023-02-28T15:42:19;102166.81;;;4.97;48.97
72959;BME280;60008;50.826;6.896;2023-02-28T15:45:05;102172.75;;;5.15;50.71
72959;BME280;60008;50.826;6.896;2023-02-28T15:47:50;102169.19;;;5.02;48.80
72959;BME280;60008;50.826;6.896;2023-02-28T15:50:37;102157.75;;;5.17;49.82
72959;BME280;60008;50.826;6.896;2023-02-28T15:56:47;102155.22;;;5.15;49.84
72959;BME280;60008;50.826;6.896;2023-02-28T15:59:36;102161.91;;;5.21;49.61
72959;BME280;60008;50.826;6.896;2023-02-28T16:02:30;102167.00;;;5.08;50.63
72959;BME280;60008;50.826;6.896;2023-02-28T16:08:14;102165.63;;;5.03;51.27
72959;BME280;60008;50.826;6.896;2023-02-28T16:11:00;102162.16;;;5.02;51.24
72959;BME280;60008;50.826;6.896;2023-02-28T16:13:45;102167.41;;;5.02;49.68
72959;BME280;60008;50.826;6.896;2023-02-28T16:16:31;102165.22;;;5.09;50.20
72959;BME280;60008;50.826;6.896;2023-02-28T16:19:18;102171.88;;;5.00;50.17
72959;BME280;60008;50.826;6.896;2023-02-28T16:22:03;102180.25;;;5.07;50.84
72959;BME280;60008;50.826;6.896;2023-02-28T16:24:48;102176.38;;;4.98;50.27
72959;BME280;60008;50.826;6.896;2023-02-28T16:27:36;102178.66;;;5.04;51.52
72959;BME280;60008;50.826;6.896;2023-02-28T16:30:25;102181.56;;;5.00;50.21
72959;BME280;60008;50.826;6.896;2023-02-28T16:33:11;102175.69;;;4.95;50.33
72959;BME280;60008;50.826;6.896;2023-02-28T16:35:55;102183.69;;;4.93;51.40
72959;BME280;60008;50.826;6.896;2023-02-28T16:38:40;102170.81;;;4.89;51.62
72959;BME280;60008;50.826;6.896;2023-02-28T16:41:26;102184.38;;;4.81;53.07
72959;BME280;60008;50.826;6.896;2023-02-28T16:44:21;102179.41;;;4.76;52.44
72959;BME280;60008;50.826;6.896;2023-02-28T16:47:09;102184.75;;;4.75;51.96